Time;durP1;ratioP1;P1;durP2;ratioP2;P2;SDS_P1;SDS_P2;PMS_P1;PMS_P2;Temp;Humidity;BMP_temperature;BMP_pressure;BME280_temperature;BME280_humidity;BME280_pressure;Samples;Min_cycle;Max_cycle;Signal;HPM_P1;HPM_P2
2022/05/31 00:00:47;;;;;;;2.83;2.20;;;;;;;9.99;60.78;98137.22;5093909;28;20276;-50
2022/05/31 00:03:15;;;;;;;4.77;2.00;;;;;;;9.97;60.73;98141.78;5093374;28;20186;-52
2022/05/31 00:05:42;;;;;;;4.87;2.00;;;;;;;10.07;61.10;98140.84;5093764;28;20206;-51
2022/05/31 00:08:10;;;;;;;2.83;1.57;;;;;;;10.13;61.38;98140.16;5093350;28;20222;-53
2022/05/31 00:10:37;;;;;;;2.70;1.77;;;;;;;10.15;60.47;98130.38;5092281;28;20201;-51
2022/05/31 00:13:05;;;;;;;4.10;2.00;;;;;;;10.14;60.78;98134.81;5093606;28;20220;-51
2022/05/31 00:15:32;;;;;;;3.23;1.90;;;;;;;10.31;59.17;98132.22;5093452;28;20275;-53
2022/05/31 00:17:59;;;;;;;2.13;1.70;;;;;;;10.26;60.04;98124.88;5092927;28;20321;-52
2022/05/31 00:20:27;;;;;;;4.17;1.60;;;;;;;10.22;59.38;98128.78;5093534;28;20265;-53
2022/05/31 00:22:54;;;;;;;3.47;1.70;;;;;;;10.14;60.84;98126.97;5097861;28;20661;-51
2022/05/31 00:25:23;;;;;;;2.20;1.67;;;;;;;10.02;60.04;98128.25;5097645;28;20217;-53
2022/05/31 00:27:51;;;;;;;2.20;2.00;;;;;;;9.98;60.50;98125.16;5095774;28;20213;-51
2022/05/31 00:30:18;;;;;;;2.37;1.80;;;;;;;9.90;61.88;98125.94;5097116;28;20675;-53
2022/05/31 00:32:48;;;;;;;2.60;1.60;;;;;;;9.84;62.02;98116.16;5095895;28;20199;-50
2022/05/31 00:35:20;;;;;;;2.93;1.53;;;;;;;9.77;62.59;98120.38;5097851;28;20187;-52
2022/05/31 00:37:47;;;;;;;3.07;1.77;;;;;;;9.72;62.94;98125.22;5095733;28;20215;-51
2022/05/31 00:40:17;;;;;;;2.30;1.60;;;;;;;9.67;62.77;98120.50;5095866;28;20660;-52
2022/05/31 00:42:54;;;;;;;3.90;1.60;;;;;;;9.63;62.97;98124.41;5095797;28;20725;-51
2022/05/31 00:45:24;;;;;;;4.67;1.70;;;;;;;9.58;63.21;98114.44;5095470;28;20326;-51
2022/05/31 00:47:53;;;;;;;2.00;1.63;;;;;;;9.53;62.33;98121.09;5095719;28;20245;-52
2022/05/31 00:50:26;;;;;;;2.80;1.47;;;;;;;9.48;63.18;98125.97;5096752;28;20195;-53
2022/05/31 00:52:58;;;;;;;3.77;1.70;;;;;;;9.47;63.05;98126.94;5096963;28;20565;-51
2022/05/31 00:55:29;;;;;;;2.23;1.60;;;;;;;9.43;62.95;98131.66;5096591;28;20218;-53
2022/05/31 00:58:02;;;;;;;2.33;1.60;;;;;;;9.42;62.95;98124.81;5096802;28;20207;-51
2022/05/31 01:00:30;;;;;;;2.80;1.67;;;;;;;9.36;62.74;98128.84;5095335;28;20190;-51
2022/05/31 01:02:59;;;;;;;3.57;1.90;;;;;;;9.45;63.41;98127.91;5095729;28;20283;-53
2022/05/31 01:05:27;;;;;;;3.23;1.67;;;;;;;9.38;63.09;98128.69;5094671;28;20204;-51
2022/05/31 01:07:54;;;;;;;2.00;1.57;;;;;;;9.32;63.20;98126.72;5096232;28;20562;-53
2022/05/31 01:10:22;;;;;;;2.00;1.47;;;;;;;9.28;63.97;98131.41;5094975;28;20212;-53
2022/05/31 01:13:21;;;;;;;2.60;1.87;;;;;;;9.35;63.68;98136.81;5096120;28;20206;-51
2022/05/31 01:16:09;;;;;;;3.77;1.93;;;;;;;9.35;63.36;98129.81;5096305;28;20197;-53
2022/05/31 01:18:55;;;;;;;2.30;1.40;;;;;;;9.38;63.82;98137.31;5096007;28;20640;-51
2022/05/31 01:21:42;;;;;;;1.43;1.20;;;;;;;9.39;62.48;98140.75;5096333;28;20253;-53
2022/05/31 01:24:19;;;;;;;2.83;1.57;;;;;;;9.47;62.93;98142.56;5095022;28;20626;-51
2022/05/31 01:26:53;;;;;;;3.80;1.47;;;;;;;9.51;63.00;98139.50;5095104;28;20567;-52
2022/05/31 01:29:24;;;;;;;3.10;1.70;;;;;;;9.45;63.27;98140.13;5094653;28;20215;-51
2022/05/31 01:31:59;;;;;;;2.20;1.50;;;;;;;9.58;61.54;98142.28;5094726;28;20252;-51
2022/05/31 01:34:32;;;;;;;4.47;1.40;;;;;;;9.56;63.70;98150.25;5095018;28;20580;-51
2022/05/31 01:37:01;;;;;;;2.03;1.63;;;;;;;9.55;63.57;98151.22;5096181;28;20201;-51
2022/05/31 01:39:34;;;;;;;1.70;1.33;;;;;;;9.49;64.02;98153.66;5094446;28;20214;-51
2022/05/31 01:42:08;;;;;;;5.40;2.23;;;;;;;9.62;62.89;98153.19;5096436;28;20184;-53
2022/05/31 01:44:41;;;;;;;3.40;2.00;;;;;;;9.76;63.07;98155.22;5094695;28;20234;-53
2022/05/31 01:47:09;;;;;;;2.73;2.00;;;;;;;9.74;63.53;98157.16;5094156;28;20214;-51
2022/05/31 01:49:40;;;;;;;4.13;2.20;;;;;;;9.74;63.13;98158.00;5096290;28;20225;-53
2022/05/31 01:52:11;;;;;;;4.03;2.23;;;;;;;9.88;63.22;98155.78;5096164;28;20657;-52
2022/05/31 01:54:40;;;;;;;2.70;2.10;;;;;;;9.83;63.24;98153.63;5096843;28;20206;-54
2022/05/31 01:57:12;;;;;;;4.53;2.00;;;;;;;9.70;63.25;98145.41;5096732;28;20243;-52
2022/05/31 01:59:45;;;;;;;2.20;1.80;;;;;;;9.54;63.90;98149.59;5094592;28;20211;-51
2022/05/31 02:02:15;;;;;;;4.40;2.00;;;;;;;9.46;64.59;98149.56;5094759;28;20188;-51
2022/05/31 02:04:43;;;;;;;3.40;2.20;;;;;;;9.42;65.79;98153.47;5094401;28;20188;-51
2022/05/31 02:07:15;;;;;;;2.73;2.10;;;;;;;9.42;66.82;98145.66;5093656;28;20662;-51
2022/05/31 02:09:47;;;;;;;3.57;2.50;;;;;;;9.42;67.26;98151.66;5093751;28;20187;-51
2022/05/31 02:12:25;;;;;;;3.53;2.07;;;;;;;9.36;66.76;98151.47;5093920;28;20197;-51
2022/05/31 02:15:11;;;;;;;3.63;2.47;;;;;;;9.30;66.70;98150.28;5095724;28;20325;-51
2022/05/31 02:17:50;;;;;;;2.70;1.90;;;;;;;9.23;68.76;98149.28;5093669;28;20230;-51
2022/05/31 02:20:36;;;;;;;7.10;2.07;;;;;;;9.11;69.22;98152.13;5095233;28;20593;-53
2022/05/31 02:23:05;;;;;;;5.43;2.20;;;;;;;9.08;68.62;98152.44;5095052;28;20181;-51
2022/05/31 02:25:32;;;;;;;3.53;2.08;;;;;;;8.97;69.11;98155.31;5092521;28;20493;-51
2022/05/31 02:27:59;;;;;;;4.33;2.30;;;;;;;8.92;69.12;98142.75;5093348;28;20206;-51
2022/05/31 02:30:27;;;;;;;2.10;1.77;;;;;;;8.92;69.24;98145.34;5094258;28;20213;-52
2022/05/31 02:32:54;;;;;;;3.60;2.20;;;;;;;8.91;69.83;98146.31;5094074;28;20227;-51
2022/05/31 02:35:22;;;;;;;3.60;2.17;;;;;;;8.92;69.86;98142.75;5095262;28;20194;-51
2022/05/31 02:37:49;;;;;;;2.13;1.73;;;;;;;8.93;69.61;98149.56;5096194;28;20222;-53
2022/05/31 02:40:18;;;;;;;2.63;1.60;;;;;;;8.87;70.27;98147.56;5093637;28;20211;-53
2022/05/31 02:42:45;;;;;;;2.33;1.70;;;;;;;8.85;70.15;98144.31;5093267;28;20201;-51
2022/05/31 02:45:12;;;;;;;5.93;1.93;;;;;;;8.87;70.54;98147.56;5093068;28;20194;-52
2022/05/31 02:47:42;;;;;;;3.80;1.70;;;;;;;8.84;70.22;98155.69;5093325;28;20223;-51
2022/05/31 02:50:10;;;;;;;1.90;1.70;;;;;;;8.85;70.48;98147.75;5094337;28;20190;-51
2022/05/31 02:52:40;;;;;;;4.80;1.60;;;;;;;8.98;70.51;98159.56;5093596;28;20211;-51
2022/05/31 02:55:09;;;;;;;3.10;1.70;;;;;;;9.06;70.04;98156.16;5094095;28;20190;-52
2022/05/31 02:58:12;;;;;;;5.20;1.93;;;;;;;9.09;70.18;98150.66;5052467;28;20299;-53
2022/05/31 03:00:58;;;;;;;3.67;1.37;;;;;;;9.07;69.55;98152.59;5091763;28;20222;-51
2022/05/31 03:04:01;;;;;;;2.33;1.53;;;;;;;9.01;70.19;98144.44;5051596;28;20246;-51
2022/05/31 03:06:49;;;;;;;4.40;1.90;;;;;;;8.95;70.95;98145.03;5076688;28;20701;-54
2022/05/31 03:09:20;;;;;;;3.97;1.80;;;;;;;8.85;71.33;98142.53;5094780;28;20211;-52
2022/05/31 03:11:53;;;;;;;6.67;1.60;;;;;;;8.77;70.65;98134.66;5095143;28;20748;-53
2022/05/31 03:14:27;;;;;;;2.50;1.80;;;;;;;8.74;71.38;98137.56;5094578;28;20676;-53
2022/05/31 03:17:00;;;;;;;2.80;1.40;;;;;;;8.63;72.09;98143.81;5094925;28;20606;-51
2022/05/31 03:19:32;;;;;;;3.37;1.50;;;;;;;8.55;70.44;98141.16;5094202;28;20206;-51
2022/05/31 03:22:05;;;;;;;1.70;1.40;;;;;;;8.52;70.67;98141.44;5094325;28;20282;-53
2022/05/31 03:24:38;;;;;;;2.37;1.60;;;;;;;8.49;72.56;98136.53;5094196;28;20223;-52
2022/05/31 03:27:09;;;;;;;3.60;1.70;;;;;;;8.45;71.97;98138.59;5094007;28;20200;-53
2022/05/31 03:29:42;;;;;;;3.13;1.60;;;;;;;8.42;73.01;98139.72;5095497;28;20181;-52
2022/05/31 03:32:11;;;;;;;5.33;1.80;;;;;;;8.48;72.08;98140.91;5095707;28;20182;-53
2022/05/31 03:34:37;;;;;;;3.57;1.90;;;;;;;8.41;72.12;98142.47;5095814;28;20182;-53
2022/05/31 03:37:05;;;;;;;2.27;1.87;;;;;;;8.44;71.75;98142.16;5093536;28;20579;-51
2022/05/31 03:39:32;;;;;;;2.77;2.13;;;;;;;8.40;72.38;98144.25;5093414;28;20263;-53
2022/05/31 03:42:00;;;;;;;2.67;1.70;;;;;;;8.36;73.46;98142.94;5093267;28;20252;-51
2022/05/31 03:44:29;;;;;;;3.37;1.80;;;;;;;8.35;73.39;98141.28;5094838;28;20174;-54
2022/05/31 03:47:25;;;;;;;4.90;2.20;;;;;;;8.30;73.97;98138.31;5093034;28;20608;-52
2022/05/31 03:50:12;;;;;;;2.70;2.20;;;;;;;8.24;73.67;98131.09;5094628;28;20220;-52
2022/05/31 03:52:40;;;;;;;4.40;2.30;;;;;;;8.20;74.10;98132.38;5093789;28;20196;-52
2022/05/31 03:55:09;;;;;;;3.00;2.20;;;;;;;8.22;74.13;98133.03;5093537;28;20194;-52
2022/05/31 03:57:48;;;;;;;2.90;1.80;;;;;;;8.13;75.74;98127.75;5097563;28;20230;-53
2022/05/31 04:00:37;;;;;;;2.53;1.80;;;;;;;8.05;76.47;98117.28;5099033;28;20581;-51
2022/05/31 04:03:20;;;;;;;2.20;1.70;;;;;;;8.00;75.88;98116.91;5097375;28;20277;-52
2022/05/31 04:05:50;;;;;;;2.87;1.77;;;;;;;7.95;76.77;98124.31;5097458;28;20217;-53
2022/05/31 04:08:20;;;;;;;3.47;2.27;;;;;;;8.02;77.03;98127.13;5096757;28;20217;-51
2022/05/31 04:10:49;;;;;;;2.70;1.70;;;;;;;8.11;76.60;98123.66;5097477;28;20269;-51
2022/05/31 04:13:17;;;;;;;4.77;1.97;;;;;;;8.16;76.36;98120.63;5097793;28;20207;-53
2022/05/31 04:16:13;;;;;;;1.70;1.40;;;;;;;8.25;74.88;98130.16;5098184;28;20275;-53
2022/05/31 04:18:46;;;;;;;2.93;1.67;;;;;;;8.39;75.00;98129.63;5096834;28;20619;-51
2022/05/31 04:21:17;;;;;;;5.63;2.03;;;;;;;8.48;74.17;98132.31;5097173;28;20193;-53
2022/05/31 04:24:02;;;;;;;2.90;1.67;;;;;;;8.62;73.58;98139.56;5096456;28;20247;-51
2022/05/31 04:27:01;;;;;;;2.60;1.90;;;;;;;8.82;73.19;98139.41;5097854;28;20201;-53
2022/05/31 04:29:38;;;;;;;2.70;2.00;;;;;;;8.93;73.54;98130.56;5097799;28;20630;-51
2022/05/31 04:32:08;;;;;;;2.83;1.80;;;;;;;9.07;74.84;98126.56;5097711;28;20190;-52
2022/05/31 04:34:49;;;;;;;5.80;1.87;;;;;;;9.15;73.39;98130.03;5096116;28;20692;-53
2022/05/31 04:37:17;;;;;;;3.63;1.73;;;;;;;9.26;73.26;98131.56;5095863;28;20191;-52
2022/05/31 04:40:04;;;;;;;5.00;2.13;;;;;;;9.35;73.89;98137.63;5097657;28;20216;-51
2022/05/31 04:42:52;;;;;;;3.93;1.50;;;;;;;9.48;72.58;98137.22;5097003;28;20203;-51
2022/05/31 04:45:31;;;;;;;2.07;1.90;;;;;;;9.65;73.81;98138.09;5097515;28;20201;-52
2022/05/31 04:48:12;;;;;;;3.30;1.60;;;;;;;9.78;73.20;98144.66;5097788;28;20203;-51
2022/05/31 04:50:41;;;;;;;1.60;1.50;;;;;;;9.86;72.58;98140.28;5096644;28;20732;-51
2022/05/31 04:53:09;;;;;;;2.33;1.33;;;;;;;9.93;72.29;98150.06;5096144;28;20187;-51
2022/05/31 04:55:45;;;;;;;3.10;1.50;;;;;;;10.05;71.82;98146.19;5095594;28;20196;-51
2022/05/31 04:58:13;;;;;;;3.97;1.70;;;;;;;10.18;73.12;98148.31;5095334;28;20761;-52
2022/05/31 05:00:41;;;;;;;2.33;1.67;;;;;;;10.27;74.16;98139.53;5095560;28;20220;-51
2022/05/31 05:03:26;;;;;;;3.83;1.50;;;;;;;10.55;71.93;98154.13;5097448;28;20554;-51
2022/05/31 05:05:58;;;;;;;1.97;1.60;;;;;;;10.74;70.19;98164.22;5095373;28;20261;-51
2022/05/31 05:08:26;;;;;;;4.33;2.33;;;;;;;10.83;67.56;98169.47;5095257;28;20222;-51
2022/05/31 05:10:54;;;;;;;4.53;3.07;;;;;;;10.76;67.54;98174.53;5095552;28;20196;-51
2022/05/31 05:13:37;;;;;;;6.10;3.73;;;;;;;10.51;68.70;98176.31;5095131;28;20201;-51
2022/05/31 05:16:06;;;;;;;4.47;3.50;;;;;;;10.27;69.72;98180.47;5096476;28;20187;-53
2022/05/31 05:18:39;;;;;;;6.20;3.20;;;;;;;10.18;69.18;98185.69;5094817;28;20212;-51
2022/05/31 05:21:11;;;;;;;4.13;3.57;;;;;;;10.22;69.73;98177.53;5094528;28;20214;-51
2022/05/31 05:23:40;;;;;;;7.63;3.50;;;;;;;10.22;69.96;98173.13;5095586;28;20278;-53
2022/05/31 05:26:12;;;;;;;5.57;3.40;;;;;;;10.24;70.03;98178.19;5095827;28;20184;-52
2022/05/31 05:31:43;;;;;;;4.63;3.33;;;;;;;10.41;68.76;98189.50;5095389;28;20189;-52
2022/05/31 05:34:29;;;;;;;3.40;2.70;;;;;;;10.56;68.40;98185.28;5096531;28;20268;-52
2022/05/31 05:37:05;;;;;;;3.87;3.13;;;;;;;10.71;67.35;98179.41;5094992;28;20265;-51
2022/05/31 05:39:33;;;;;;;4.37;2.63;;;;;;;10.83;67.71;98178.13;5094996;28;20205;-53
2022/05/31 05:42:19;;;;;;;5.77;3.10;;;;;;;10.97;68.39;98187.06;5096252;28;20453;-51
2022/05/31 05:45:07;;;;;;;3.23;2.87;;;;;;;11.08;69.39;98181.53;5088485;28;20282;-51
2022/05/31 05:47:35;;;;;;;7.53;5.23;;;;;;;11.25;68.16;98178.06;5094432;28;20733;-53
2022/05/31 05:50:02;;;;;;;5.93;3.40;;;;;;;11.36;67.94;98185.56;5094735;28;20185;-52
2022/05/31 05:52:56;;;;;;;6.97;3.90;;;;;;;11.44;67.27;98179.50;5096240;28;20203;-52
2022/05/31 05:55:42;;;;;;;4.30;3.03;;;;;;;11.52;68.46;98176.88;5096711;28;20187;-51
2022/05/31 05:58:28;;;;;;;3.43;2.43;;;;;;;11.57;69.12;98190.25;5096096;28;20348;-51
2022/05/31 06:01:21;;;;;;;5.40;3.30;;;;;;;11.75;67.93;98197.03;5096215;28;20216;-52
2022/05/31 06:04:06;;;;;;;5.00;3.37;;;;;;;11.81;65.44;98202.44;5094800;28;20201;-51
2022/05/31 06:06:36;;;;;;;4.73;3.30;;;;;;;11.72;65.21;98202.59;5094417;28;20212;-53
2022/05/31 06:09:08;;;;;;;4.80;3.20;;;;;;;11.77;65.32;98208.16;5096811;28;20200;-51
2022/05/31 06:11:40;;;;;;;5.83;4.50;;;;;;;11.72;65.63;98213.06;5095929;28;20185;-53
2022/05/31 06:14:12;;;;;;;4.83;3.67;;;;;;;11.87;65.72;98202.72;5093901;28;20199;-51
2022/05/31 06:16:46;;;;;;;4.30;3.10;;;;;;;12.17;65.44;98210.81;5094035;28;20193;-51
2022/05/31 06:19:18;;;;;;;4.90;3.13;;;;;;;12.44;63.90;98206.06;5093144;28;20239;-52
2022/05/31 06:21:46;;;;;;;4.40;3.20;;;;;;;12.69;62.64;98198.88;5095153;28;20212;-51
2022/05/31 06:24:24;;;;;;;5.27;3.23;;;;;;;13.16;61.16;98196.19;5094390;28;20195;-51
2022/05/31 06:26:56;;;;;;;5.73;3.43;;;;;;;13.21;60.57;98191.22;5094100;28;20609;-51
2022/05/31 06:29:23;;;;;;;4.33;3.47;;;;;;;13.43;60.51;98194.81;5093971;28;20236;-52
2022/05/31 06:31:49;;;;;;;6.30;3.27;;;;;;;13.50;60.13;98197.53;5095100;28;20190;-51
2022/05/31 06:34:27;;;;;;;6.13;3.43;;;;;;;13.62;59.69;98203.97;5094828;28;20200;-52
2022/05/31 06:37:17;;;;;;;7.53;3.33;;;;;;;13.72;59.19;98208.91;5094992;28;20205;-51
2022/05/31 06:39:47;;;;;;;5.53;3.93;;;;;;;13.73;58.88;98211.38;5093859;28;20215;-52
2022/05/31 06:42:47;;;;;;;7.20;3.87;;;;;;;13.58;59.89;98202.69;5060677;28;20276;-52
2022/05/31 06:45:41;;;;;;;6.47;4.23;;;;;;;13.42;61.68;98204.50;5063617;28;20203;-52
2022/05/31 06:48:27;;;;;;;5.60;4.17;;;;;;;13.39;61.48;98207.44;5094596;28;20234;-51
2022/05/31 06:56:47;;;;;;;10.53;4.20;;;;;;;13.49;62.39;98199.31;5095184;28;20766;-51
2022/05/31 06:57:33;;;;;;;8.00;4.50;;;;;;;13.73;60.53;98203.50;5094516;28;20255;-52
2022/05/31 07:00:15;;;;;;;7.73;4.23;;;;;;;13.84;59.84;98219.75;5093910;28;20199;-51
2022/05/31 07:02:44;;;;;;;8.43;3.93;;;;;;;13.85;59.90;98218.75;5093347;28;20250;-51
2022/05/31 07:05:12;;;;;;;5.70;4.10;;;;;;;13.95;59.54;98214.06;5093086;28;20201;-51
2022/05/31 07:07:40;;;;;;;7.03;4.50;;;;;;;13.94;58.85;98222.91;5092810;28;20213;-52
2022/05/31 07:10:33;;;;;;;5.97;4.33;;;;;;;13.98;59.59;98229.44;5093977;28;20191;-52
2022/05/31 07:13:34;;;;;;;6.17;4.50;;;;;;;13.98;59.20;98228.63;5094129;28;20227;-51
2022/05/31 07:16:02;;;;;;;12.00;4.23;;;;;;;14.17;58.15;98235.13;5094325;28;20279;-52
2022/05/31 07:18:48;;;;;;;5.43;3.77;;;;;;;14.26;58.07;98231.38;5094083;28;20293;-51
2022/05/31 07:21:15;;;;;;;6.77;4.13;;;;;;;14.18;58.30;98239.38;5094587;28;20205;-51
2022/05/31 07:23:42;;;;;;;4.97;3.78;;;;;;;14.29;58.33;98231.03;5092669;28;20565;-52
2022/05/31 07:26:12;;;;;;;5.53;3.70;;;;;;;14.44;58.43;98238.84;5092919;28;20201;-53
2022/05/31 07:28:42;;;;;;;5.00;3.87;;;;;;;14.70;57.85;98239.38;5092205;28;20206;-51
2022/05/31 07:31:10;;;;;;;6.80;4.27;;;;;;;14.64;57.62;98235.63;5091665;28;20196;-52
2022/05/31 07:33:51;;;;;;;4.70;3.63;;;;;;;14.86;58.22;98241.72;5092629;28;20221;-51
2022/05/31 07:36:19;;;;;;;7.40;3.97;;;;;;;14.87;56.62;98234.66;5092169;28;20198;-51
2022/05/31 07:39:05;;;;;;;7.53;4.20;;;;;;;14.90;57.29;98221.16;5092244;28;20206;-54
2022/05/31 07:41:34;;;;;;;6.40;3.70;;;;;;;15.04;56.80;98232.56;5092644;28;20212;-51
2022/05/31 07:44:04;;;;;;;4.87;3.50;;;;;;;15.03;56.15;98220.44;5092471;28;20229;-53
2022/05/31 07:46:32;;;;;;;5.40;4.10;;;;;;;15.07;56.46;98231.41;5092632;28;20245;-51
2022/05/31 07:48:59;;;;;;;6.67;4.07;;;;;;;15.24;55.76;98229.31;5092248;28;20207;-51
2022/05/31 07:51:49;;;;;;;4.00;3.50;;;;;;;15.13;56.13;98225.38;5092548;28;20228;-52
2022/05/31 07:54:36;;;;;;;6.03;3.90;;;;;;;15.00;56.42;98219.00;5093462;28;20208;-54
2022/05/31 08:00:35;;;;;;;5.87;4.00;;;;;;;15.32;56.55;98219.47;5093780;28;20642;-52
2022/05/31 08:03:05;;;;;;;5.10;3.27;;;;;;;15.34;55.81;98217.47;5092116;28;20602;-52
2022/05/31 08:05:32;;;;;;;4.43;3.40;;;;;;;15.47;55.09;98222.00;5093114;28;20206;-51
2022/05/31 08:07:59;;;;;;;5.00;3.90;;;;;;;15.60;54.69;98223.88;5093147;28;20215;-52
2022/05/31 08:10:27;;;;;;;5.23;3.37;;;;;;;15.70;55.55;98225.34;5093327;28;20641;-51
2022/05/31 08:12:54;;;;;;;5.27;3.97;;;;;;;15.79;54.71;98224.19;5093384;28;20236;-53
2022/05/31 08:15:21;;;;;;;6.10;3.40;;;;;;;16.00;53.59;98227.75;5093753;28;20188;-53
2022/05/31 08:17:50;;;;;;;5.83;3.10;;;;;;;16.52;52.14;98228.94;5093430;28;20254;-53
2022/05/31 08:20:17;;;;;;;5.20;2.93;;;;;;;16.68;51.43;98235.69;5093690;28;20568;-53
2022/05/31 08:22:45;;;;;;;8.00;4.43;;;;;;;16.78;49.70;98237.91;5093277;28;20188;-52
2022/05/31 08:25:12;;;;;;;6.33;3.37;;;;;;;16.78;51.28;98242.38;5092838;28;20265;-51
2022/05/31 08:27:40;;;;;;;5.60;3.20;;;;;;;17.14;49.25;98246.47;5091761;28;20751;-52
2022/05/31 08:30:08;;;;;;;9.00;3.87;;;;;;;17.09;49.15;98244.47;5093396;28;20188;-51
2022/05/31 08:32:36;;;;;;;10.53;3.60;;;;;;;17.53;49.82;98249.28;5093183;28;20192;-51
2022/05/31 08:35:07;;;;;;;3.97;3.20;;;;;;;17.81;48.93;98256.16;5092919;28;20184;-51
2022/05/31 08:37:34;;;;;;;5.73;3.27;;;;;;;17.87;48.10;98257.97;5092220;28;20587;-51
2022/05/31 08:40:02;;;;;;;4.83;3.10;;;;;;;18.05;48.84;98252.03;5092513;28;20188;-53
2022/05/31 08:42:48;;;;;;;8.03;3.63;;;;;;;18.34;46.50;98255.19;5093857;28;20288;-51
2022/05/31 08:45:26;;;;;;;3.70;2.60;;;;;;;18.18;47.03;98250.38;5094787;28;20197;-53
2022/05/31 08:47:59;;;;;;;4.97;3.33;;;;;;;18.25;47.82;98246.69;5095438;28;20197;-53
2022/05/31 08:53:21;;;;;;;3.63;2.83;;;;;;;17.77;48.56;98239.94;5096168;28;20194;-52
2022/05/31 08:58:44;;;;;;;8.97;3.27;;;;;;;17.69;50.02;98248.88;5094378;28;20458;-54
2022/05/31 09:01:16;;;;;;;4.83;3.53;;;;;;;17.57;49.94;98239.94;5095838;28;20211;-52
2022/05/31 09:03:47;;;;;;;4.97;2.87;;;;;;;17.74;50.13;98245.63;5096150;28;20256;-54
2022/05/31 09:06:22;;;;;;;4.70;2.93;;;;;;;17.90;48.61;98243.56;5095657;28;20184;-54
2022/05/31 09:09:02;;;;;;;6.20;2.70;;;;;;;18.18;48.70;98238.00;5095148;28;20208;-54
2022/05/31 09:11:34;;;;;;;5.20;3.13;;;;;;;18.22;48.81;98241.84;5096265;28;20184;-54
2022/05/31 09:14:08;;;;;;;12.80;3.10;;;;;;;18.13;48.95;98243.88;5094034;28;20569;-54
2022/05/31 09:16:46;;;;;;;5.60;2.87;;;;;;;18.35;49.66;98246.25;5095606;28;20260;-51
2022/05/31 09:19:19;;;;;;;3.27;2.97;;;;;;;17.89;48.41;98247.22;5095272;28;20626;-54
2022/05/31 09:21:50;;;;;;;3.87;2.73;;;;;;;17.78;49.02;98240.72;5094088;28;20221;-51
2022/05/31 09:24:19;;;;;;;4.50;2.70;;;;;;;17.80;49.69;98236.88;5095481;28;20185;-51
2022/05/31 09:27:03;;;;;;;4.20;2.93;;;;;;;18.19;49.24;98230.84;5095367;28;20180;-53
2022/05/31 09:29:37;;;;;;;4.17;3.37;;;;;;;18.24;49.00;98231.03;5095304;28;20188;-51
2022/05/31 09:32:15;;;;;;;6.20;2.97;;;;;;;19.17;46.81;98232.31;5094186;28;20198;-53
2022/05/31 09:35:04;;;;;;;9.83;3.30;;;;;;;19.64;44.72;98240.84;5095492;28;20212;-53
2022/05/31 09:37:50;;;;;;;6.23;2.87;;;;;;;19.85;45.12;98234.31;5095119;28;20216;-51
2022/05/31 09:40:32;;;;;;;5.40;2.60;;;;;;;20.01;43.28;98225.00;5094813;28;20194;-52
2022/05/31 09:43:06;;;;;;;5.50;2.63;;;;;;;20.34;42.82;98229.88;5095004;28;20210;-51
2022/05/31 09:45:40;;;;;;;6.97;2.43;;;;;;;20.78;43.29;98226.22;5095069;28;20191;-51
2022/05/31 09:48:08;;;;;;;4.97;2.60;;;;;;;20.35;43.23;98230.66;5094236;28;20237;-53
2022/05/31 09:50:34;;;;;;;3.43;2.40;;;;;;;20.35;42.43;98230.66;5094577;28;20190;-54
2022/05/31 09:57:05;;;;;;;4.70;2.10;;;;;;;20.35;43.02;98225.38;5093866;28;20198;-52
2022/05/31 09:58:42;;;;;;;4.37;1.90;;;;;;;19.88;41.10;98221.44;5094443;28;20228;-52
2022/05/31 10:01:48;;;;;;;5.43;1.53;;;;;;;19.82;40.48;98217.03;5094698;28;20288;-52
2022/05/31 10:04:26;;;;;;;3.03;1.77;;;;;;;20.03;42.71;98215.00;5093601;28;20202;-53
2022/05/31 10:06:56;;;;;;;3.83;1.93;;;;;;;20.32;41.10;98221.34;5094335;28;20527;-52
2022/05/31 10:09:32;;;;;;;4.87;1.57;;;;;;;20.53;39.99;98216.56;5094085;28;20564;-52
2022/05/31 10:12:14;;;;;;;2.13;1.50;;;;;;;20.80;39.11;98213.53;5093143;28;20187;-51
2022/05/31 10:14:44;;;;;;;6.87;1.70;;;;;;;20.84;38.36;98211.25;5093171;28;20196;-51
2022/05/31 10:17:30;;;;;;;2.77;1.43;;;;;;;20.96;35.70;98206.78;5092880;28;20655;-52
2022/05/31 10:20:28;;;;;;;2.07;1.50;;;;;;;21.06;32.84;98214.16;5094362;28;20263;-52
2022/05/31 10:22:59;;;;;;;2.03;1.43;;;;;;;21.12;34.89;98212.44;5090747;28;20668;-52
2022/05/31 10:25:50;;;;;;;4.60;1.50;;;;;;;21.31;36.21;98218.44;5093994;28;20258;-54
2022/05/31 10:28:53;;;;;;;2.50;1.67;;;;;;;20.61;32.90;98210.97;5055787;28;20367;-52
2022/05/31 10:31:48;;;;;;;3.47;1.20;;;;;;;20.92;35.51;98209.06;5093908;28;20184;-54
2022/05/31 10:34:40;;;;;;;1.47;1.37;;;;;;;21.27;33.46;98209.34;5094013;28;20189;-51
2022/05/31 10:37:24;;;;;;;2.57;1.30;;;;;;;20.94;31.00;98211.50;5089095;28;20206;-51
2022/05/31 10:40:02;;;;;;;3.03;1.30;;;;;;;20.81;32.21;98207.19;5093727;28;20224;-52
2022/05/31 10:42:34;;;;;;;5.40;1.70;;;;;;;20.61;32.03;98208.31;5093441;28;20221;-53
2022/05/31 10:45:04;;;;;;;3.13;1.40;;;;;;;20.82;33.11;98208.81;5093672;28;20175;-53
2022/05/31 10:47:49;;;;;;;3.17;1.73;;;;;;;21.20;32.67;98207.59;5093324;28;20271;-52
2022/05/31 10:50:17;;;;;;;3.37;1.40;;;;;;;21.71;34.12;98203.66;5093517;28;20195;-54
2022/05/31 10:52:53;;;;;;;4.20;1.43;;;;;;;22.10;31.02;98209.22;5093453;28;20660;-52
2022/05/31 10:55:33;;;;;;;1.43;1.33;;;;;;;21.95;31.96;98210.53;5093297;28;20196;-54
2022/05/31 10:58:23;;;;;;;6.23;1.43;;;;;;;21.97;32.02;98212.94;5092989;28;20205;-52
2022/05/31 11:00:57;;;;;;;7.53;1.50;;;;;;;22.14;30.45;98218.34;5093100;28;20193;-53
2022/05/31 11:03:38;;;;;;;4.57;1.50;;;;;;;22.55;29.63;98219.09;5093109;28;20186;-52
2022/05/31 11:06:19;;;;;;;2.73;1.40;;;;;;;22.30;30.01;98215.94;5092971;28;20189;-52
2022/05/31 11:11:55;;;;;;;3.43;1.30;;;;;;;22.53;31.55;98225.72;5092958;28;20190;-52
2022/05/31 11:14:37;;;;;;;2.90;1.13;;;;;;;22.74;26.88;98223.44;5091664;28;20266;-53
2022/05/31 11:17:20;;;;;;;4.43;1.50;;;;;;;22.61;28.16;98224.53;5091184;28;20209;-53
2022/05/31 11:19:57;;;;;;;3.67;1.20;;;;;;;23.12;27.84;98222.72;5092708;28;20189;-52
2022/05/31 11:22:36;;;;;;;2.30;1.20;;;;;;;23.40;28.42;98222.88;5092735;28;20712;-53
2022/05/31 11:25:22;;;;;;;2.90;1.20;;;;;;;22.82;28.00;98229.16;5092726;28;20214;-51
2022/05/31 11:28:04;;;;;;;2.63;1.23;;;;;;;23.35;28.46;98226.25;5092655;28;20205;-54
2022/05/31 11:30:39;;;;;;;3.80;1.20;;;;;;;23.36;29.41;98227.06;5092740;28;20585;-53
2022/05/31 11:33:21;;;;;;;2.73;1.20;;;;;;;23.21;26.47;98231.06;5092866;28;20189;-52
2022/05/31 11:36:07;;;;;;;1.90;1.03;;;;;;;22.64;25.42;98219.53;5092648;28;20559;-54
2022/05/31 11:38:44;;;;;;;2.53;1.10;;;;;;;23.00;29.11;98225.44;5092485;28;20285;-54
2022/05/31 11:41:22;;;;;;;2.40;1.30;;;;;;;23.41;26.39;98227.94;5092784;28;20205;-52
2022/05/31 11:44:44;;;;;;;2.20;1.07;;;;;;;22.68;25.68;98218.03;5092824;28;20182;-51
2022/05/31 11:47:30;;;;;;;5.67;1.00;;;;;;;22.86;27.54;98218.81;5010045;28;20216;-54
2022/05/31 11:50:11;;;;;;;2.03;1.20;;;;;;;22.89;27.31;98217.53;5092581;28;20227;-52
2022/05/31 11:52:55;;;;;;;2.63;1.13;;;;;;;23.44;27.25;98218.66;5092423;28;20184;-53
2022/05/31 11:55:31;;;;;;;3.63;1.10;;;;;;;23.80;27.17;98227.13;5092305;28;20204;-51
2022/05/31 11:58:12;;;;;;;3.93;1.10;;;;;;;23.71;26.01;98224.06;5092179;28;20234;-52
2022/05/31 12:00:46;;;;;;;2.40;1.33;;;;;;;23.94;26.91;98222.22;5092451;28;20255;-52
2022/05/31 12:03:23;;;;;;;5.30;0.97;;;;;;;24.02;26.19;98213.81;5092542;28;20203;-53
2022/05/31 12:05:59;;;;;;;6.97;1.30;;;;;;;23.81;27.54;98215.44;5091161;28;20193;-54
2022/05/31 12:08:34;;;;;;;1.60;1.03;;;;;;;24.12;28.00;98217.66;5092124;28;20302;-51
2022/05/31 12:11:09;;;;;;;4.10;1.17;;;;;;;23.83;27.80;98207.97;5092110;28;20200;-52
2022/05/31 12:13:38;;;;;;;5.27;1.20;;;;;;;23.77;27.82;98210.81;5092285;28;20194;-52
2022/05/31 12:16:06;;;;;;;1.23;1.07;;;;;;;24.04;27.51;98208.22;5092376;28;20179;-53
2022/05/31 12:18:43;;;;;;;2.73;1.13;;;;;;;23.99;26.17;98213.50;5095713;28;20552;-53
2022/05/31 12:21:17;;;;;;;2.83;1.40;;;;;;;23.97;26.87;98208.41;5096577;28;20647;-54
2022/05/31 12:23:52;;;;;;;5.50;1.20;;;;;;;23.77;27.38;98211.63;5096141;28;20370;-52
2022/05/31 12:26:28;;;;;;;5.03;1.20;;;;;;;23.41;30.06;98203.97;5096184;28;20243;-52
2022/05/31 12:29:02;;;;;;;2.63;1.30;;;;;;;23.39;28.53;98199.94;5095962;28;20242;-54
2022/05/31 12:31:31;;;;;;;4.00;1.00;;;;;;;23.49;28.08;98189.44;5096357;28;20182;-52
2022/05/31 12:34:14;;;;;;;1.23;1.07;;;;;;;23.56;27.31;98192.72;5095797;28;20187;-51
2022/05/31 12:37:01;;;;;;;4.70;1.10;;;;;;;23.89;26.23;98190.97;5095888;28;20273;-54